createdAt,value
2022-10-31T00:01:18.080Z,7.30
2022-10-31T00:03:46.822Z,7.20
2022-10-31T00:06:15.637Z,7.10
2022-10-31T00:08:44.272Z,7.20
2022-10-31T00:11:13.038Z,7.20
2022-10-31T00:13:42.924Z,7.20
2022-10-31T00:16:18.265Z,7.20
2022-10-31T00:18:49.658Z,7.20
2022-10-31T00:21:18.511Z,7.10
2022-10-31T00:23:47.066Z,7.10
2022-10-31T00:26:15.861Z,7.10
2022-10-31T00:28:45.918Z,7.10
2022-10-31T00:31:14.887Z,7.00
2022-10-31T00:33:43.982Z,7.00
2022-10-31T00:36:13.844Z,7.00
2022-10-31T00:38:43.094Z,7.10
2022-10-31T00:41:11.758Z,7.10
2022-10-31T00:43:43.064Z,7.10
2022-10-31T00:46:13.188Z,7.00
2022-10-31T00:48:43.216Z,7.10
2022-10-31T00:51:12.118Z,7.10
2022-10-31T00:53:42.096Z,7.20
2022-10-31T00:56:10.793Z,7.10
2022-10-31T00:58:39.400Z,7.10
2022-10-31T01:01:09.229Z,7.00
2022-10-31T01:03:40.916Z,7.10
2022-10-31T01:06:14.320Z,7.10
2022-10-31T01:08:43.013Z,7.10
2022-10-31T01:11:15.227Z,7.10
2022-10-31T01:13:43.975Z,7.10
2022-10-31T01:16:13.803Z,7.10
2022-10-31T01:18:43.801Z,7.10
2022-10-31T01:21:13.623Z,7.00
2022-10-31T01:23:42.494Z,7.00
2022-10-31T01:26:15.252Z,6.90
2022-10-31T01:28:46.972Z,6.80
2022-10-31T01:31:16.880Z,6.80
2022-10-31T01:33:47.085Z,6.70
2022-10-31T01:36:22.303Z,6.70
2022-10-31T01:38:53.816Z,6.60
2022-10-31T01:41:23.850Z,6.60
2022-10-31T01:43:54.121Z,6.60
2022-10-31T01:46:24.709Z,6.50
2022-10-31T01:48:55.289Z,6.50
2022-10-31T01:51:25.826Z,6.50
2022-10-31T01:53:56.744Z,6.40
2022-10-31T01:56:25.444Z,6.40
2022-10-31T01:58:54.408Z,6.40
2022-10-31T02:01:23.214Z,6.40
2022-10-31T02:03:52.045Z,6.40
2022-10-31T02:06:28.516Z,6.40
2022-10-31T02:08:58.036Z,6.40
2022-10-31T02:11:27.190Z,6.30
2022-10-31T02:13:56.414Z,6.30
2022-10-31T02:16:25.196Z,6.30
2022-10-31T02:18:55.438Z,6.40
2022-10-31T02:21:27.382Z,6.30
2022-10-31T02:24:17.133Z,6.20
2022-10-31T02:26:55.025Z,6.20
2022-10-31T02:29:40.886Z,6.20
2022-10-31T02:32:13.480Z,6.10
2022-10-31T02:34:46.951Z,6.00
2022-10-31T02:37:16.292Z,6.00
2022-10-31T02:39:47.592Z,5.90
2022-10-31T02:42:24.874Z,5.90
2022-10-31T02:44:58.342Z,5.90
2022-10-31T02:47:31.382Z,5.80
2022-10-31T02:50:01.701Z,5.80
2022-10-31T02:52:30.975Z,5.70
2022-10-31T02:55:11.716Z,5.70
2022-10-31T02:57:42.035Z,5.70
2022-10-31T03:00:11.385Z,5.70
2022-10-31T03:02:46.871Z,5.80
2022-10-31T03:05:39.757Z,5.70
2022-10-31T03:08:21.071Z,5.80
2022-10-31T03:10:53.922Z,5.80
2022-10-31T03:15:53.322Z,5.90
2022-10-31T03:18:28.599Z,6.00
2022-10-31T03:20:59.393Z,5.90
2022-10-31T03:23:28.622Z,6.00
2022-10-31T03:25:57.375Z,6.00
2022-10-31T03:28:30.587Z,6.00
2022-10-31T03:31:02.387Z,6.00
2022-10-31T03:33:36.778Z,6.00
2022-10-31T03:36:07.211Z,6.00
2022-10-31T03:38:37.270Z,6.00
2022-10-31T03:41:07.819Z,5.90
2022-10-31T03:43:40.525Z,5.90
2022-10-31T03:46:09.327Z,5.80
2022-10-31T03:48:39.607Z,5.80
2022-10-31T03:51:11.456Z,5.80
2022-10-31T03:53:41.851Z,5.80
2022-10-31T03:56:15.455Z,5.90
2022-10-31T03:58:46.263Z,7.10
2022-10-31T04:01:17.585Z,5.90
2022-10-31T04:03:47.886Z,5.80
2022-10-31T04:06:18.163Z,5.90
2022-10-31T04:08:50.073Z,5.90
2022-10-31T04:11:21.741Z,5.80
2022-10-31T04:14:04.552Z,5.80
2022-10-31T04:16:34.815Z,5.70
2022-10-31T04:19:05.057Z,5.70
2022-10-31T04:21:33.640Z,5.60
2022-10-31T04:24:02.165Z,5.70
2022-10-31T04:26:32.544Z,5.70
2022-10-31T04:29:01.526Z,5.70
2022-10-31T04:31:30.838Z,5.70
2022-10-31T04:33:59.529Z,5.70
2022-10-31T04:36:30.646Z,5.80
2022-10-31T04:39:00.948Z,5.80
2022-10-31T04:41:42.963Z,5.80
2022-10-31T04:44:17.635Z,5.80
2022-10-31T04:46:50.044Z,5.80
2022-10-31T04:49:19.330Z,5.80
2022-10-31T04:51:49.225Z,5.80
2022-10-31T04:54:18.670Z,5.80
2022-10-31T04:57:19.153Z,5.70
2022-10-31T04:59:48.765Z,5.70
2022-10-31T05:02:18.171Z,5.70
2022-10-31T05:04:54.173Z,5.70
2022-10-31T05:07:24.397Z,5.70
2022-10-31T05:09:57.058Z,5.70
2022-10-31T05:12:25.741Z,5.70
2022-10-31T05:15:17.654Z,5.60
2022-10-31T05:18:08.811Z,5.70
2022-10-31T05:20:57.401Z,5.60
2022-10-31T05:23:31.677Z,5.60
2022-10-31T05:26:01.643Z,5.70
2022-10-31T05:28:30.291Z,5.50
2022-10-31T05:30:59.490Z,5.50
2022-10-31T05:33:28.378Z,5.50
2022-10-31T05:36:15.318Z,5.50
2022-10-31T05:38:51.613Z,5.50
2022-10-31T05:41:27.694Z,5.50
2022-10-31T05:44:05.780Z,5.50
2022-10-31T05:46:42.248Z,5.50
2022-10-31T05:49:29.986Z,5.60
2022-10-31T05:52:10.461Z,5.60
2022-10-31T05:54:47.737Z,5.60
2022-10-31T05:57:16.391Z,5.60
2022-10-31T05:59:44.991Z,5.60
2022-10-31T06:02:13.711Z,5.60
2022-10-31T06:05:00.620Z,5.70
2022-10-31T06:07:29.501Z,5.70
2022-10-31T06:09:59.385Z,5.80
2022-10-31T06:12:30.215Z,5.90
2022-10-31T06:15:23.496Z,5.90
2022-10-31T06:18:00.244Z,6.00
2022-10-31T06:20:29.827Z,6.10
2022-10-31T06:23:04.499Z,6.20
2022-10-31T06:25:36.111Z,6.20
2022-10-31T06:28:06.987Z,6.30
2022-10-31T06:30:48.991Z,6.30
2022-10-31T06:33:18.431Z,6.50
2022-10-31T06:35:57.215Z,6.60
2022-10-31T06:38:27.429Z,6.60
2022-10-31T06:40:57.712Z,6.50
2022-10-31T06:43:29.887Z,6.60
2022-10-31T06:46:14.934Z,6.60
2022-10-31T06:49:00.555Z,6.60
2022-10-31T06:51:38.546Z,6.60
2022-10-31T06:54:07.394Z,6.70
2022-10-31T06:56:37.397Z,6.80
2022-10-31T06:59:06.618Z,6.90
2022-10-31T07:02:07.487Z,7.00
2022-10-31T07:04:37.034Z,7.00
2022-10-31T07:07:05.908Z,7.10
2022-10-31T07:09:35.401Z,7.10
2022-10-31T07:12:07.748Z,7.20
2022-10-31T07:14:40.320Z,7.30
2022-10-31T07:17:09.237Z,7.30
2022-10-31T07:19:43.201Z,7.50
2022-10-31T07:22:13.537Z,7.60
2022-10-31T07:24:45.286Z,7.70
2022-10-31T07:27:44.823Z,7.90
2022-10-31T07:30:15.514Z,8.00
2022-10-31T07:32:45.131Z,8.10
2022-10-31T07:35:16.894Z,8.20
2022-10-31T07:37:49.371Z,8.30
2022-10-31T07:40:18.606Z,8.40
2022-10-31T07:42:49.951Z,8.40
2022-10-31T07:45:50.881Z,8.50
2022-10-31T07:48:38.055Z,8.50
2022-10-31T07:51:25.490Z,8.70
2022-10-31T07:53:54.109Z,8.80
2022-10-31T07:56:26.735Z,8.80
2022-10-31T07:58:56.888Z,8.90
2022-10-31T08:01:25.732Z,9.10
2022-10-31T08:04:14.289Z,9.10
2022-10-31T08:07:01.162Z,9.20
2022-10-31T08:09:36.196Z,9.20
2022-10-31T08:12:12.386Z,9.20
2022-10-31T08:14:42.522Z,9.20
2022-10-31T08:17:11.365Z,9.20
2022-10-31T08:19:49.533Z,9.20
2022-10-31T08:22:19.078Z,11.70
2022-10-31T08:24:47.696Z,9.50
2022-10-31T08:27:16.299Z,9.50
2022-10-31T08:29:46.881Z,9.60
2022-10-31T08:32:15.724Z,9.70
2022-10-31T08:35:02.683Z,9.90
2022-10-31T08:37:58.546Z,9.80
2022-10-31T08:40:30.208Z,9.80
2022-10-31T08:42:59.736Z,9.70
2022-10-31T08:45:30.524Z,9.80
2022-10-31T08:48:00.746Z,9.80
2022-10-31T08:50:30.333Z,9.70
2022-10-31T08:53:06.125Z,9.80
2022-10-31T08:55:37.207Z,9.80
2022-10-31T08:58:24.698Z,9.80
2022-10-31T09:00:59.418Z,9.80
2022-10-31T09:03:29.023Z,9.90
2022-10-31T09:05:58.601Z,10.10
2022-10-31T09:08:31.293Z,10.10
2022-10-31T09:11:00.117Z,10.10
2022-10-31T09:13:47.122Z,10.10
2022-10-31T09:16:37.336Z,10.30
2022-10-31T09:19:11.384Z,10.40
2022-10-31T09:21:40.677Z,10.40
2022-10-31T09:24:09.418Z,10.50
2022-10-31T09:26:38.227Z,10.60
2022-10-31T09:29:16.596Z,10.60
2022-10-31T09:31:47.707Z,10.60
2022-10-31T09:34:27.761Z,10.60
2022-10-31T09:37:18.313Z,10.60
2022-10-31T09:39:47.313Z,10.70
2022-10-31T09:42:45.055Z,10.80
2022-10-31T09:45:36.881Z,10.80
2022-10-31T09:48:24.339Z,10.90
2022-10-31T09:51:20.932Z,11.00
2022-10-31T09:53:58.493Z,11.20
2022-10-31T09:56:27.971Z,11.20
2022-10-31T09:59:01.744Z,11.40
2022-10-31T10:01:32.872Z,11.50
2022-10-31T10:04:04.915Z,11.60
2022-10-31T10:06:54.063Z,11.70
2022-10-31T10:09:41.248Z,11.90
2022-10-31T10:12:34.747Z,12.00
2022-10-31T10:15:15.781Z,12.10
2022-10-31T10:17:47.230Z,12.30
2022-10-31T10:20:25.294Z,12.40
2022-10-31T10:22:57.534Z,12.50
2022-10-31T10:25:28.146Z,12.60
2022-10-31T10:28:09.384Z,12.70
2022-10-31T10:30:41.350Z,12.80
2022-10-31T10:33:12.141Z,13.00
2022-10-31T10:35:44.566Z,13.10
2022-10-31T10:38:16.820Z,13.30
2022-10-31T10:40:45.936Z,13.40
2022-10-31T10:43:23.548Z,13.50
2022-10-31T10:46:12.684Z,13.70
2022-10-31T10:48:44.667Z,13.80
2022-10-31T10:51:38.561Z,13.90
2022-10-31T10:54:15.886Z,14.00
2022-10-31T10:56:57.323Z,14.10
2022-10-31T10:59:26.174Z,14.30
2022-10-31T11:01:54.757Z,14.30
2022-10-31T11:04:31.372Z,14.60
2022-10-31T11:07:02.871Z,14.70
2022-10-31T11:09:31.623Z,14.80
2022-10-31T11:12:00.821Z,14.90
2022-10-31T11:14:29.629Z,15.00
2022-10-31T11:17:10.122Z,15.10
2022-10-31T11:19:38.988Z,15.10
2022-10-31T11:22:10.532Z,15.10
2022-10-31T11:24:40.769Z,15.10
2022-10-31T11:27:15.525Z,15.30
2022-10-31T11:29:44.354Z,15.50
2022-10-31T11:32:23.238Z,15.50
2022-10-31T11:34:53.836Z,15.50
2022-10-31T11:37:24.920Z,15.50
2022-10-31T11:39:55.678Z,15.40
2022-10-31T11:42:25.383Z,15.60
2022-10-31T11:44:54.829Z,15.50
2022-10-31T11:47:26.514Z,15.40
2022-10-31T11:49:55.730Z,15.30
2022-10-31T11:52:26.872Z,15.20
2022-10-31T11:54:56.697Z,15.10
2022-10-31T11:57:26.523Z,15.10
2022-10-31T11:59:55.948Z,15.10
2022-10-31T12:02:25.048Z,15.10
2022-10-31T12:04:57.966Z,15.20
2022-10-31T12:07:28.109Z,15.30
2022-10-31T12:09:56.869Z,15.30
2022-10-31T12:12:44.620Z,15.30
2022-10-31T12:15:24.683Z,15.30
2022-10-31T12:17:59.649Z,15.40
2022-10-31T12:20:35.379Z,15.40
2022-10-31T12:23:09.370Z,15.50
2022-10-31T12:25:42.257Z,15.60
2022-10-31T12:28:27.566Z,15.90
2022-10-31T12:31:02.032Z,16.30
2022-10-31T12:33:44.746Z,16.50
2022-10-31T12:38:50.828Z,17.20
2022-10-31T12:41:31.351Z,17.40
2022-10-31T12:44:06.562Z,17.50
2022-10-31T12:46:44.266Z,17.30
2022-10-31T12:49:20.139Z,17.20
2022-10-31T12:51:53.989Z,17.10
2022-10-31T12:54:32.012Z,17.10
2022-10-31T12:57:04.534Z,17.10
2022-10-31T12:59:34.872Z,16.90
2022-10-31T13:02:09.347Z,16.80
2022-10-31T13:04:41.496Z,16.50
2022-10-31T13:07:13.326Z,16.20
2022-10-31T13:09:45.961Z,15.90
2022-10-31T13:12:17.645Z,15.70
2022-10-31T13:14:48.547Z,15.50
2022-10-31T13:17:23.267Z,15.30
2022-10-31T13:19:53.533Z,15.20
2022-10-31T13:22:23.789Z,15.10
2022-10-31T13:24:56.707Z,14.90
2022-10-31T13:27:27.315Z,14.90
2022-10-31T13:30:01.080Z,14.80
2022-10-31T13:32:31.792Z,14.80
2022-10-31T13:35:01.162Z,14.80
2022-10-31T13:37:33.255Z,14.90
2022-10-31T13:40:08.920Z,14.90
2022-10-31T13:42:43.833Z,14.80
2022-10-31T13:45:16.272Z,14.70
2022-10-31T13:47:45.094Z,14.60
2022-10-31T13:50:21.705Z,14.50
2022-10-31T13:52:50.360Z,14.30
2022-10-31T13:55:37.448Z,14.30
2022-10-31T13:58:23.690Z,14.20
2022-10-31T14:01:13.587Z,14.20
2022-10-31T14:04:07.656Z,14.10
2022-10-31T14:06:40.365Z,14.00
2022-10-31T14:09:19.943Z,13.80
2022-10-31T14:11:49.708Z,13.80
2022-10-31T14:14:21.573Z,13.70
2022-10-31T14:16:55.798Z,13.60
2022-10-31T14:19:24.606Z,13.50
2022-10-31T14:21:53.471Z,13.30
2022-10-31T14:24:36.346Z,13.30
2022-10-31T14:27:08.700Z,13.10
2022-10-31T14:29:38.565Z,13.00
2022-10-31T14:32:12.119Z,13.00
2022-10-31T14:34:42.949Z,12.80
2022-10-31T14:37:19.137Z,12.70
2022-10-31T14:39:54.336Z,12.60
2022-10-31T14:42:30.132Z,12.50
2022-10-31T14:45:08.476Z,12.40
2022-10-31T14:47:41.568Z,12.30
2022-10-31T14:50:20.540Z,12.20
2022-10-31T14:52:51.183Z,12.10
2022-10-31T14:55:20.475Z,11.90
2022-10-31T14:57:51.620Z,11.80
2022-10-31T15:00:22.821Z,11.70
2022-10-31T15:02:56.299Z,11.60
2022-10-31T15:05:25.553Z,11.50
2022-10-31T15:07:54.796Z,11.40
2022-10-31T15:10:24.933Z,11.40
2022-10-31T15:12:54.070Z,11.30
2022-10-31T15:15:24.764Z,11.20
2022-10-31T15:17:55.042Z,11.10
2022-10-31T15:20:25.264Z,11.10
2022-10-31T15:22:54.261Z,11.00
2022-10-31T15:25:23.671Z,10.90
2022-10-31T15:27:52.946Z,10.80
2022-10-31T15:30:22.711Z,10.70
2022-10-31T15:33:01.152Z,10.70
2022-10-31T15:35:31.058Z,10.60
2022-10-31T15:38:02.855Z,10.50
2022-10-31T15:40:31.917Z,10.40
2022-10-31T15:43:01.796Z,10.40
2022-10-31T15:45:31.662Z,10.30
2022-10-31T15:48:03.243Z,10.30
2022-10-31T15:50:34.664Z,10.10
2022-10-31T15:53:04.302Z,10.10
2022-10-31T15:55:35.268Z,10.00
2022-10-31T15:58:05.866Z,9.90
2022-10-31T16:00:35.630Z,9.80
2022-10-31T16:03:11.199Z,9.70
2022-10-31T16:05:40.546Z,9.70
2022-10-31T16:08:25.203Z,9.60
2022-10-31T16:10:54.089Z,9.50
2022-10-31T16:13:26.234Z,9.50
2022-10-31T16:16:21.181Z,9.50
2022-10-31T16:18:47.070Z,9.50
2022-10-31T16:21:15.590Z,9.40
2022-10-31T16:23:47.242Z,9.40
2022-10-31T16:26:18.985Z,9.40
2022-10-31T16:28:53.436Z,9.40
2022-10-31T16:31:28.796Z,9.30
2022-10-31T16:34:16.072Z,9.30
2022-10-31T16:36:46.261Z,9.20
2022-10-31T16:39:15.177Z,9.20
2022-10-31T16:41:44.682Z,9.20
2022-10-31T16:44:18.110Z,9.20
2022-10-31T16:46:47.084Z,9.20
2022-10-31T16:49:17.577Z,9.20
2022-10-31T16:51:47.445Z,9.30
2022-10-31T16:54:16.154Z,9.40
2022-10-31T16:56:44.861Z,9.40
2022-10-31T16:59:16.373Z,9.40
2022-10-31T17:01:48.192Z,9.50
2022-10-31T17:04:17.269Z,9.40
2022-10-31T17:06:47.302Z,9.40
2022-10-31T17:09:15.985Z,9.40
2022-10-31T17:11:49.840Z,9.40
2022-10-31T17:14:19.397Z,9.40
2022-10-31T17:16:47.966Z,9.30
2022-10-31T17:19:16.796Z,9.30
2022-10-31T17:21:45.551Z,9.30
2022-10-31T17:24:15.922Z,9.40
2022-10-31T17:26:44.625Z,9.30
2022-10-31T17:29:13.144Z,9.40
2022-10-31T17:31:41.883Z,9.40
2022-10-31T17:34:10.591Z,9.40
2022-10-31T17:36:39.282Z,9.50
2022-10-31T17:39:09.678Z,9.60
2022-10-31T17:41:39.711Z,9.60
2022-10-31T17:44:10.956Z,9.60
2022-10-31T17:46:39.952Z,9.80
2022-10-31T17:49:09.252Z,9.80
2022-10-31T17:51:37.896Z,9.80
2022-10-31T17:54:08.895Z,9.90
2022-10-31T17:56:38.978Z,9.90
2022-10-31T17:59:07.633Z,9.90
2022-10-31T18:01:36.298Z,10.00
2022-10-31T18:04:05.164Z,10.00
2022-10-31T18:06:33.754Z,10.00
2022-10-31T18:09:03.664Z,10.10
2022-10-31T18:11:32.744Z,10.10
2022-10-31T18:14:02.754Z,10.20
2022-10-31T18:16:31.448Z,10.20
2022-10-31T18:19:01.977Z,10.20
2022-10-31T18:21:31.287Z,10.20
2022-10-31T18:24:00.610Z,10.20
2022-10-31T18:26:29.718Z,10.30
2022-10-31T18:28:58.567Z,10.20
2022-10-31T18:31:28.651Z,10.20
2022-10-31T18:33:57.772Z,10.30
2022-10-31T18:36:26.417Z,10.20
2022-10-31T18:38:55.033Z,10.30
2022-10-31T18:41:23.791Z,10.30
2022-10-31T18:43:56.103Z,10.30
2022-10-31T18:46:24.852Z,10.40
2022-10-31T18:48:54.932Z,10.40
2022-10-31T18:51:24.118Z,10.40
2022-10-31T18:53:53.280Z,10.50
2022-10-31T18:56:22.300Z,10.50
2022-10-31T18:58:51.124Z,10.50
2022-10-31T19:01:20.570Z,11.00
2022-10-31T19:03:55.814Z,10.60
2022-10-31T19:06:24.660Z,10.60
2022-10-31T19:08:57.856Z,10.70
2022-10-31T19:11:26.699Z,10.70
2022-10-31T19:13:55.263Z,10.70
2022-10-31T19:16:23.941Z,10.70
2022-10-31T19:18:56.450Z,10.80
2022-10-31T19:21:25.349Z,10.80
2022-10-31T19:23:56.377Z,10.80
2022-10-31T19:26:25.953Z,10.70
2022-10-31T19:28:55.966Z,10.70
2022-10-31T19:31:24.837Z,10.70
2022-10-31T19:33:53.517Z,10.70
2022-10-31T19:36:23.949Z,10.70
2022-10-31T19:38:53.810Z,10.80
2022-10-31T19:41:23.802Z,10.80
2022-10-31T19:43:52.629Z,10.80
2022-10-31T19:46:33.836Z,10.80
2022-10-31T19:49:10.858Z,10.90
2022-10-31T19:51:40.866Z,10.90
2022-10-31T19:54:09.584Z,10.90
2022-10-31T19:56:38.139Z,10.90
2022-10-31T19:59:06.824Z,11.00
2022-10-31T20:01:35.750Z,11.00
2022-10-31T20:04:04.516Z,11.00
2022-10-31T20:06:34.132Z,11.10
2022-10-31T20:09:05.313Z,11.20
2022-10-31T20:11:34.160Z,11.20
2022-10-31T20:14:02.991Z,11.10
2022-10-31T20:16:32.588Z,11.10
2022-10-31T20:19:01.298Z,11.20
2022-10-31T20:21:30.817Z,11.20
2022-10-31T20:24:01.291Z,11.20
2022-10-31T20:26:33.293Z,11.20
2022-10-31T20:29:03.624Z,11.20
2022-10-31T20:31:34.092Z,11.20
2022-10-31T20:34:02.649Z,11.30
2022-10-31T20:36:31.992Z,11.20
2022-10-31T20:39:01.312Z,11.20
2022-10-31T20:41:30.054Z,11.30
2022-10-31T20:44:00.190Z,11.30
2022-10-31T20:46:29.319Z,11.30
2022-10-31T20:48:58.110Z,11.30
2022-10-31T20:51:28.611Z,11.30
2022-10-31T20:53:58.033Z,11.30
2022-10-31T20:56:27.555Z,11.30
2022-10-31T20:58:56.824Z,11.30
2022-10-31T21:01:28.284Z,11.30
2022-10-31T21:03:58.408Z,11.40
2022-10-31T21:06:27.330Z,11.30
2022-10-31T21:08:56.169Z,11.30
2022-10-31T21:11:25.606Z,11.30
2022-10-31T21:13:54.583Z,11.40
2022-10-31T21:16:24.301Z,11.40
2022-10-31T21:18:54.673Z,11.40
2022-10-31T21:21:29.153Z,11.30
2022-10-31T21:24:01.794Z,11.30
2022-10-31T21:26:31.462Z,11.30
2022-10-31T21:29:00.906Z,11.30
2022-10-31T21:31:29.784Z,11.30
2022-10-31T21:33:59.700Z,11.30
2022-10-31T21:36:28.421Z,11.30
2022-10-31T21:38:57.303Z,11.20
2022-10-31T21:41:27.062Z,11.20
2022-10-31T21:43:55.764Z,11.10
2022-10-31T21:46:25.742Z,11.10
2022-10-31T21:48:55.025Z,11.10
2022-10-31T21:51:26.793Z,11.00
2022-10-31T21:54:13.019Z,11.00
2022-10-31T21:56:42.006Z,11.00
2022-10-31T21:59:10.837Z,11.00
2022-10-31T22:01:39.654Z,10.90
2022-10-31T22:04:08.348Z,10.90
2022-10-31T22:06:38.219Z,10.90
2022-10-31T22:09:07.926Z,10.80
2022-10-31T22:11:36.695Z,10.80
2022-10-31T22:14:05.544Z,10.80
2022-10-31T22:16:35.861Z,10.80
2022-10-31T22:19:06.139Z,10.80
2022-10-31T22:21:39.329Z,10.80
2022-10-31T22:24:08.691Z,10.70
2022-10-31T22:26:37.803Z,10.80
2022-10-31T22:29:07.286Z,10.80
2022-10-31T22:31:38.471Z,10.80
2022-10-31T22:34:07.521Z,10.70
2022-10-31T22:36:36.274Z,10.70
2022-10-31T22:39:06.853Z,10.70
2022-10-31T22:41:36.423Z,10.80
2022-10-31T22:44:05.513Z,10.70
2022-10-31T22:46:34.934Z,10.80
2022-10-31T22:49:04.714Z,10.80
2022-10-31T22:51:34.189Z,10.70
2022-10-31T22:54:02.958Z,10.70
2022-10-31T22:56:33.547Z,10.70
2022-10-31T22:59:02.574Z,10.70
2022-10-31T23:01:32.494Z,10.80
2022-10-31T23:04:01.873Z,10.70
2022-10-31T23:06:31.381Z,10.70
2022-10-31T23:09:00.711Z,10.70
2022-10-31T23:11:32.399Z,10.70
2022-10-31T23:14:14.529Z,10.70
2022-10-31T23:16:44.423Z,10.70
2022-10-31T23:19:14.288Z,10.70
2022-10-31T23:21:56.348Z,10.70
2022-10-31T23:24:26.830Z,10.70
2022-10-31T23:27:08.521Z,10.70
2022-10-31T23:29:39.715Z,10.60
2022-10-31T23:32:09.720Z,10.60
2022-10-31T23:34:40.636Z,10.60
2022-10-31T23:37:09.399Z,10.60
2022-10-31T23:39:37.941Z,10.60
2022-10-31T23:42:06.697Z,10.60
2022-10-31T23:44:35.254Z,10.60
2022-10-31T23:47:05.446Z,10.60
2022-10-31T23:49:34.301Z,10.50
2022-10-31T23:52:03.601Z,10.50
2022-10-31T23:54:32.591Z,12.00
2022-10-31T23:57:01.514Z,10.50
2022-10-31T23:59:30.466Z,10.50
